Time;durP1;ratioP1;P1;durP2;ratioP2;P2;SDS_P1;SDS_P2;PMS_P1;PMS_P2;Temp;Humidity;BMP_temperature;BMP_pressure;BME280_temperature;BME280_humidity;BME280_pressure;Samples;Min_cycle;Max_cycle;Signal;HPM_P1;HPM_P2
2023/03/07 00:00:38;;;;;;;;;22.00;14.67;;;;;8.25;100.00;100038.78;4948691;28;45745;-81
2023/03/07 00:03:04;;;;;;;;;24.33;17.00;;;;;8.54;100.00;100081.22;4953688;28;45925;-81
2023/03/07 00:05:31;;;;;;;;;23.33;16.67;;;;;8.53;100.00;100079.53;4947754;28;46452;-80
2023/03/07 00:07:56;;;;;;;;;14.67;14.67;;;;;8.51;100.00;100078.09;4936095;28;45937;-81
2023/03/07 00:10:22;;;;;;;;;17.67;16.67;;;;;8.51;100.00;100084.38;4941114;28;45809;-80
2023/03/07 00:12:47;;;;;;;;;23.33;18.33;;;;;8.34;100.00;100053.91;4950842;28;45857;-80
2023/03/07 00:15:13;;;;;;;;;21.00;17.67;;;;;8.31;100.00;100049.69;4952199;28;48227;-79
2023/03/07 00:17:39;;;;;;;;;16.33;16.00;;;;;8.48;100.00;100082.09;4946765;28;45838;-82
2023/03/07 00:20:06;;;;;;;;;24.00;17.33;;;;;8.30;100.00;100061.66;4954301;28;45495;-78
2023/03/07 00:22:33;;;;;;;;;12.33;12.33;;;;;8.40;100.00;100077.66;4969308;28;45766;-80
2023/03/07 00:24:59;;;;;;;;;20.67;16.33;;;;;8.17;100.00;100042.53;4954691;28;45739;-79
2023/03/07 00:27:24;;;;;;;;;17.00;13.67;;;;;8.38;100.00;100068.78;4954102;28;45561;-81
2023/03/07 00:29:50;;;;;;;;;21.33;18.67;;;;;8.38;100.00;100062.50;4953649;28;45437;-81
2023/03/07 00:32:15;;;;;;;;;20.33;18.67;;;;;8.09;100.00;100020.91;4946575;28;45715;-83
2023/03/07 00:34:41;;;;;;;;;23.67;17.67;;;;;8.33;100.00;100070.50;4948808;28;45538;-80
2023/03/07 00:37:06;;;;;;;;;19.67;18.67;;;;;8.34;100.00;100058.50;4937299;28;45840;-80
2023/03/07 00:39:35;;;;;;;;;22.00;17.00;;;;;8.27;100.00;100056.63;4956370;28;45862;-81
2023/03/07 00:42:01;;;;;;;;;22.67;18.00;;;;;8.36;100.00;100059.16;4952297;28;45384;-81
2023/03/07 00:44:28;;;;;;;;;22.00;18.67;;;;;8.08;100.00;100002.84;4950552;28;45405;-82
2023/03/07 00:46:55;;;;;;;;;20.33;16.67;;;;;8.38;100.00;100055.13;4953270;28;45413;-82
2023/03/07 00:49:21;;;;;;;;;20.67;18.00;;;;;8.15;100.00;100008.31;4947794;28;45766;-82
2023/03/07 00:51:46;;;;;;;;;18.33;16.67;;;;;8.42;100.00;100047.38;4944352;28;45662;-82
2023/03/07 00:54:12;;;;;;;;;22.00;19.67;;;;;8.42;100.00;100044.66;4950449;28;46007;-82
2023/03/07 00:56:38;;;;;;;;;23.33;19.67;;;;;8.40;100.00;100044.03;4943317;28;45777;-83
2023/03/07 00:59:03;;;;;;;;;21.33;18.00;;;;;8.24;100.00;100007.88;4936137;28;45531;-82
2023/03/07 01:01:28;;;;;;;;;23.67;18.00;;;;;8.18;100.00;99997.81;4940949;28;45604;-82
2023/03/07 01:03:55;;;;;;;;;25.67;18.67;;;;;8.36;100.00;100026.38;4947472;28;48089;-80
2023/03/07 01:06:26;;;;;;;;;17.33;16.33;;;;;8.32;100.00;100020.47;4952304;28;45682;-81
2023/03/07 01:08:54;;;;;;;;;17.00;17.00;;;;;8.34;100.00;100015.66;4936361;28;45409;-81
2023/03/07 01:11:19;;;;;;;;;24.33;18.00;;;;;8.39;100.00;100021.31;4951919;28;45609;-81
2023/03/07 01:13:45;;;;;;;;;19.67;16.33;;;;;8.37;100.00;100014.38;4951540;28;47095;-81
2023/03/07 01:16:22;;;;;;;;;20.00;17.67;;;;;8.35;100.00;100020.03;4952753;28;47105;-80
2023/03/07 01:18:50;;;;;;;;;21.67;18.33;;;;;8.34;100.00;100012.06;4937915;28;45795;-81
2023/03/07 01:21:25;;;;;;;;;27.00;16.67;;;;;8.38;100.00;100005.97;4949892;28;45575;-81
2023/03/07 01:23:52;;;;;;;;;22.67;18.00;;;;;8.40;100.00;100000.31;4952846;28;46352;-80
2023/03/07 01:26:23;;;;;;;;;21.67;20.67;;;;;8.20;100.00;99962.09;4952359;28;45983;-81
2023/03/07 01:28:53;;;;;;;;;21.00;18.33;;;;;8.24;100.00;99974.28;4953601;28;45800;-81
2023/03/07 01:31:20;;;;;;;;;23.00;18.67;;;;;8.20;100.00;99967.53;4953351;28;45619;-80
2023/03/07 01:33:47;;;;;;;;;18.00;14.33;;;;;8.16;100.00;99966.28;4952390;28;45893;-81
2023/03/07 01:36:18;;;;;;;;;20.00;17.00;;;;;8.36;100.00;99993.59;4953359;28;45575;-81
2023/03/07 01:39:15;;;;;;;;;22.00;18.33;;;;;8.05;100.00;99935.00;4947481;28;45793;-84
2023/03/07 01:42:22;;;;;;;;;17.00;15.67;;;;;8.40;100.00;99986.66;4953616;28;45408;-84
2023/03/07 01:48:07;;;;;;;;;20.33;16.33;;;;;8.11;100.00;99929.53;4920977;28;45375;-83
2023/03/07 01:51:06;;;;;;;;;;;;;;;;;;;;;
2023/03/07 01:53:43;;;;;;;;;20.00;18.33;;;;;8.36;100.00;99975.28;4953993;28;73305;-83
2023/03/07 02:03:39;;;;;;;;;18.67;16.67;;;;;8.06;100.00;99923.88;4964797;28;45569;-82
2023/03/07 02:06:14;;;;;;;;;21.67;18.67;;;;;8.37;100.00;99955.13;4968670;28;45618;-82
2023/03/07 02:08:43;;;;;;;;;22.67;18.00;;;;;8.06;100.00;99907.47;4954611;28;45861;-82
2023/03/07 02:11:10;;;;;;;;;14.00;12.00;;;;;8.16;100.00;99907.06;4951048;28;45504;-81
2023/03/07 02:13:35;;;;;;;;;20.33;18.00;;;;;8.38;100.00;99945.03;4947118;28;45467;-81
2023/03/07 02:16:02;;;;;;;;;21.67;18.33;;;;;8.35;100.00;99932.63;4947119;28;45576;-80
2023/03/07 02:18:32;;;;;;;;;20.33;17.00;;;;;8.33;100.00;99929.28;4947621;28;47764;-80
2023/03/07 02:21:16;;;;;;;;;22.33;18.67;;;;;8.29;100.00;99931.59;4940556;28;45901;-81
2023/03/07 02:24:18;;;;;;;;;22.67;21.67;;;;;8.20;100.00;99930.13;4957379;28;46056;-81
2023/03/07 02:26:46;;;;;;;;;27.00;21.67;;;;;7.99;100.00;99901.19;4951106;28;45547;-81
2023/03/07 02:29:13;;;;;;;;;27.00;18.67;;;;;8.06;100.00;99912.94;4954437;28;45810;-82
2023/03/07 02:31:40;;;;;;;;;20.33;19.00;;;;;7.92;100.00;99879.38;4944708;28;45777;-82
2023/03/07 02:34:28;;;;;;;;;24.00;17.33;;;;;8.07;100.00;99905.63;4949032;28;45527;-83
2023/03/07 02:37:18;;;;;;;;;15.67;14.33;;;;;7.99;100.00;99895.72;4946562;28;45755;-84
2023/03/07 02:39:46;;;;;;;;;20.33;17.67;;;;;8.01;100.00;99903.72;4947736;28;47063;-83
2023/03/07 02:42:17;;;;;;;;;21.33;21.00;;;;;7.87;100.00;99881.88;4944062;28;45394;-81
2023/03/07 02:44:45;;;;;;;;;22.00;17.00;;;;;8.06;100.00;99906.66;4939004;28;45514;-82
2023/03/07 02:47:10;;;;;;;;;21.67;17.67;;;;;8.00;100.00;99891.97;4948511;28;46219;-82
2023/03/07 02:49:36;;;;;;;;;18.33;15.00;;;;;8.09;100.00;99893.41;4964946;28;46215;-81
2023/03/07 02:52:02;;;;;;;;;18.67;15.67;;;;;7.86;100.00;99852.94;4944643;28;45441;-82
2023/03/07 02:54:27;;;;;;;;;20.67;18.67;;;;;8.10;100.00;99886.06;4953275;28;45459;-82
2023/03/07 02:56:53;;;;;;;;;16.67;16.33;;;;;7.99;100.00;99873.88;4954569;28;47173;-84
2023/03/07 02:59:18;;;;;;;;;27.33;18.00;;;;;8.08;100.00;99877.22;4947872;28;46584;-81
2023/03/07 03:01:45;;;;;;;;;19.00;18.00;;;;;7.99;100.00;99868.44;4964185;28;45319;-82
2023/03/07 03:04:10;;;;;;;;;18.00;16.33;;;;;7.93;100.00;99852.91;4955267;28;45953;-82
2023/03/07 03:06:36;;;;;;;;;27.67;22.00;;;;;7.92;100.00;99843.88;4968369;28;46585;-81
2023/03/07 03:09:02;;;;;;;;;21.00;18.67;;;;;8.02;100.00;99862.53;4951448;28;46732;-83
2023/03/07 03:11:27;;;;;;;;;20.00;20.00;;;;;8.15;100.00;99880.78;4940216;28;45505;-81
2023/03/07 03:13:53;;;;;;;;;17.33;15.00;;;;;8.10;100.00;99869.69;4964626;28;45378;-76
2023/03/07 03:16:18;;;;;;;;;26.33;19.00;;;;;8.04;100.00;99855.00;4951284;28;45762;-76
2023/03/07 03:18:43;;;;;;;;;22.00;17.00;;;;;8.12;100.00;99865.66;4938493;28;46397;-78
2023/03/07 03:21:10;;;;;;;;;21.67;15.00;;;;;8.15;100.00;99866.31;4951701;28;45754;-75
2023/03/07 03:23:36;;;;;;;;;22.33;18.00;;;;;8.18;100.00;99866.69;4950671;28;45703;-76
2023/03/07 03:26:06;;;;;;;;;23.67;19.33;;;;;8.20;100.00;99867.31;4949903;28;46085;-75
2023/03/07 03:28:35;;;;;;;;;20.67;19.33;;;;;8.18;100.00;99869.44;4951176;28;45504;-74
2023/03/07 03:31:04;;;;;;;;;24.00;17.00;;;;;8.15;100.00;99866.31;4951479;28;45798;-74
2023/03/07 03:33:30;;;;;;;;;17.00;15.00;;;;;8.16;100.00;99860.63;4948808;28;45476;-75
2023/03/07 03:35:56;;;;;;;;;22.67;18.67;;;;;8.15;100.00;99858.94;4951140;28;45607;-74
2023/03/07 03:38:22;;;;;;;;;25.67;20.67;;;;;8.15;100.00;99852.66;4949821;28;48545;-75
2023/03/07 03:40:47;;;;;;;;;21.00;16.00;;;;;8.19;100.00;99862.94;4952756;28;45504;-75
2023/03/07 03:43:12;;;;;;;;;18.00;15.00;;;;;8.13;100.00;99842.78;4952021;28;45513;-74
2023/03/07 03:45:39;;;;;;;;;21.00;19.33;;;;;8.13;100.00;99841.94;4944067;28;45858;-74
2023/03/07 03:48:05;;;;;;;;;17.00;17.00;;;;;8.15;100.00;99845.28;4955245;28;45467;-75
2023/03/07 03:50:30;;;;;;;;;19.33;18.67;;;;;8.13;100.00;99840.03;4955019;28;45630;-74
2023/03/07 03:52:55;;;;;;;;;16.33;15.33;;;;;8.23;100.00;99858.72;4954651;28;45789;-75
2023/03/07 03:55:21;;;;;;;;;21.67;17.67;;;;;8.21;100.00;99849.88;4954355;28;45688;-76
2023/03/07 03:57:46;;;;;;;;;22.00;17.33;;;;;8.22;100.00;99829.72;4954851;28;45751;-76
2023/03/07 04:00:14;;;;;;;;;22.00;17.67;;;;;8.18;100.00;99823.00;4954066;28;45857;-77
2023/03/07 04:02:39;;;;;;;;;19.33;15.33;;;;;8.25;100.00;99834.75;4955721;28;45665;-76
2023/03/07 04:05:05;;;;;;;;;19.67;13.67;;;;;8.24;100.00;99833.06;4945482;28;45838;-74
2023/03/07 04:07:31;;;;;;;;;19.33;16.00;;;;;8.17;100.00;99818.59;4948285;28;47450;-75
2023/03/07 04:09:56;;;;;;;;;21.00;18.33;;;;;8.23;100.00;99825.94;4937238;28;45545;-75
2023/03/07 04:12:21;;;;;;;;;21.67;18.67;;;;;8.20;100.00;99823.63;4954915;28;45790;-77
2023/03/07 04:14:47;;;;;;;;;18.00;16.67;;;;;8.29;100.00;99819.59;4955131;28;45933;-75
2023/03/07 04:17:12;;;;;;;;;21.67;18.00;;;;;8.27;100.00;99821.69;4956169;28;45467;-76
2023/03/07 04:19:37;;;;;;;;;18.33;17.00;;;;;8.25;100.00;99818.34;4940546;28;45503;-77
2023/03/07 04:22:06;;;;;;;;;18.00;15.00;;;;;8.26;100.00;99820.03;4952120;28;45788;-78
2023/03/07 04:24:31;;;;;;;;;19.00;16.33;;;;;8.18;100.00;99801.16;4950294;28;45802;-76
2023/03/07 04:26:57;;;;;;;;;17.33;15.00;;;;;8.35;100.00;99825.25;4950316;28;46092;-78
2023/03/07 04:29:22;;;;;;;;;19.33;16.33;;;;;8.35;100.00;99823.34;4946610;28;45802;-76
2023/03/07 04:31:47;;;;;;;;;20.33;16.33;;;;;8.35;100.00;99822.50;4953072;28;45728;-76
2023/03/07 04:34:13;;;;;;;;;23.00;18.00;;;;;8.26;100.00;99816.44;4951659;28;45412;-80
2023/03/07 04:36:38;;;;;;;;;16.33;14.00;;;;;8.29;100.00;99824.22;4954230;28;45737;-75
2023/03/07 04:39:04;;;;;;;;;19.00;17.00;;;;;8.34;100.00;99815.38;4952935;28;45388;-77
2023/03/07 04:41:29;;;;;;;;;20.67;18.00;;;;;8.21;100.00;99797.97;4946643;28;45825;-76
2023/03/07 04:43:55;;;;;;;;;21.33;17.67;;;;;8.30;100.00;99810.34;4953869;28;46567;-78
2023/03/07 04:46:20;;;;;;;;;17.00;16.00;;;;;8.32;100.00;99807.38;4953363;28;45902;-80
2023/03/07 04:48:46;;;;;;;;;16.67;14.67;;;;;8.31;100.00;99800.28;4954126;28;45354;-78
2023/03/07 04:51:12;;;;;;;;;19.67;18.33;;;;;8.27;100.00;99802.56;4953889;28;45496;-78
2023/03/07 04:53:38;;;;;;;;;22.67;19.00;;;;;8.14;100.00;99772.59;4953259;28;46038;-76
2023/03/07 04:56:07;;;;;;;;;18.33;14.67;;;;;8.24;100.00;99788.53;4958231;28;46875;-81
2023/03/07 04:58:33;;;;;;;;;17.33;13.33;;;;;8.28;100.00;99804.25;4957985;28;45488;-82
2023/03/07 05:01:03;;;;;;;;;14.33;14.33;;;;;8.13;100.00;99777.22;4955272;28;45492;-84
2023/03/07 05:03:30;;;;;;;;;18.00;16.00;;;;;8.24;100.00;99800.28;4955694;28;45648;-84
2023/03/07 05:06:20;;;;;;;;;18.67;17.00;;;;;8.12;100.00;99780.19;4956695;28;46799;-82
2023/03/07 05:08:46;;;;;;;;;14.67;14.00;;;;;8.12;100.00;99785.63;4955918;28;45397;-82
2023/03/07 05:11:11;;;;;;;;;21.00;18.33;;;;;8.11;100.00;99781.22;4955290;28;45969;-83
2023/03/07 05:13:37;;;;;;;;;17.67;16.00;;;;;8.03;100.00;99762.38;4970890;28;45988;-84
2023/03/07 05:16:02;;;;;;;;;20.33;17.00;;;;;8.16;100.00;99780.56;4956236;28;45521;-85
2023/03/07 05:18:31;;;;;;;;;23.00;17.67;;;;;8.01;100.00;99756.25;4955456;28;45879;-84
2023/03/07 05:20:57;;;;;;;;;16.00;14.33;;;;;8.21;100.00;99795.25;4956274;28;45403;-85
2023/03/07 05:23:23;;;;;;;;;18.33;16.00;;;;;8.26;100.00;99797.34;4956602;28;46251;-82
2023/03/07 05:25:48;;;;;;;;;19.00;18.00;;;;;7.83;100.00;99721.47;4955431;28;46772;-84
2023/03/07 05:28:15;;;;;;;;;20.00;15.67;;;;;8.28;100.00;99787.88;4944084;28;45507;-83
2023/03/07 05:30:42;;;;;;;;;14.67;13.00;;;;;8.27;100.00;99788.91;4950062;28;44880;-82
2023/03/07 05:33:08;;;;;;;;;19.33;16.67;;;;;8.03;100.00;99746.81;4951441;28;45807;-83
2023/03/07 05:35:34;;;;;;;;;17.67;16.33;;;;;8.05;100.00;99750.16;4944010;28;48168;-83
2023/03/07 05:37:59;;;;;;;;;13.67;11.00;;;;;8.26;100.00;99792.72;4954026;28;45370;-82
2023/03/07 05:40:25;;;;;;;;;17.00;14.00;;;;;8.23;100.00;99781.38;4965981;28;45791;-82
2023/03/07 05:42:51;;;;;;;;;19.33;16.33;;;;;8.10;100.00;99760.44;4954427;28;45420;-84
2023/03/07 05:45:17;;;;;;;;;20.00;17.67;;;;;8.06;100.00;99753.75;4948012;28;47042;-83
2023/03/07 05:47:42;;;;;;;;;21.67;18.00;;;;;8.06;100.00;99762.75;4945966;28;45346;-84
2023/03/07 05:50:12;;;;;;;;;18.00;17.33;;;;;8.07;100.00;99771.81;4955754;28;45534;-82
2023/03/07 05:52:39;;;;;;;;;16.67;15.33;;;;;8.06;100.00;99775.59;4953899;28;46039;-83
2023/03/07 05:55:05;;;;;;;;;16.67;16.00;;;;;7.89;100.00;99743.31;4953089;28;47895;-82
2023/03/07 05:57:31;;;;;;;;;10.33;6.00;;;;;7.84;100.00;99734.91;4955215;28;45504;-84
2023/03/07 05:59:59;;;;;;;;;16.33;16.33;;;;;8.03;100.00;99767.81;4953514;28;45684;-84
2023/03/07 06:02:24;;;;;;;;;17.67;15.67;;;;;7.69;100.00;99718.78;4970337;28;46242;-84
2023/03/07 06:04:50;;;;;;;;;23.67;18.67;;;;;7.87;100.00;99745.41;4954318;28;48066;-84
2023/03/07 06:07:15;;;;;;;;;14.67;14.00;;;;;7.97;100.00;99765.97;4948255;28;45656;-82
2023/03/07 06:09:44;;;;;;;;;18.67;16.00;;;;;7.89;100.00;99743.31;4954846;28;45459;-83
2023/03/07 06:12:10;;;;;;;;;16.33;15.33;;;;;7.89;100.00;99747.91;4954527;28;45823;-83
2023/03/07 06:14:36;;;;;;;;;15.00;15.00;;;;;7.75;100.00;99719.84;4952189;28;46718;-83
2023/03/07 06:17:07;;;;;;;;;18.33;17.00;;;;;8.00;100.00;99760.91;4958302;28;45553;-83
2023/03/07 06:19:35;;;;;;;;;18.33;17.33;;;;;8.00;100.00;99766.34;4955413;28;45606;-77
2023/03/07 06:22:01;;;;;;;;;23.67;17.00;;;;;7.90;100.00;99744.13;4942296;28;45416;-77
2023/03/07 06:24:26;;;;;;;;;16.00;13.67;;;;;7.89;100.00;99743.31;4933852;28;46099;-78
2023/03/07 06:26:52;;;;;;;;;24.00;19.00;;;;;7.95;100.00;99752.53;4941057;28;45795;-78
2023/03/07 06:29:17;;;;;;;;;19.67;15.67;;;;;7.85;100.00;99735.75;4949795;28;45758;-78
2023/03/07 06:31:42;;;;;;;;;18.00;15.00;;;;;7.90;100.00;99741.41;4945049;28;45560;-78
2023/03/07 06:34:08;;;;;;;;;17.67;17.67;;;;;7.88;100.00;99738.88;4943250;28;47893;-78
2023/03/07 06:36:33;;;;;;;;;18.67;15.33;;;;;7.98;100.00;99749.38;4950170;28;45958;-78
2023/03/07 06:38:59;;;;;;;;;16.67;14.00;;;;;8.01;100.00;99748.06;4949067;28;45466;-77
2023/03/07 06:41:24;;;;;;;;;20.67;18.00;;;;;8.05;100.00;99758.34;4948472;28;45379;-78
2023/03/07 06:43:51;;;;;;;;;22.67;18.33;;;;;8.04;100.00;99758.56;4955812;28;46293;-80
2023/03/07 06:46:19;;;;;;;;;24.67;17.00;;;;;8.05;100.00;99752.06;4934058;28;45721;-77
2023/03/07 06:48:49;;;;;;;;;17.00;16.00;;;;;8.15;100.00;99746.13;4939713;28;45459;-80
2023/03/07 06:51:15;;;;;;;;;18.33;16.33;;;;;8.30;100.00;99750.25;4952397;28;45704;-75
2023/03/07 06:53:40;;;;;;;;;23.33;17.67;;;;;8.43;100.00;99753.97;4938582;28;46269;-77
2023/03/07 06:56:06;;;;;;;;;15.00;14.00;;;;;8.23;100.00;99733.06;4951911;28;45821;-75
2023/03/07 06:58:31;;;;;;;;;20.67;17.67;;;;;8.30;100.00;99757.59;4945371;28;45883;-76
2023/03/07 07:00:57;;;;;;;;;16.67;15.67;;;;;8.34;100.00;99766.19;4951903;28;45888;-77
2023/03/07 07:03:22;;;;;;;;;24.33;20.33;;;;;8.34;100.00;99766.19;4949629;28;47196;-76
2023/03/07 07:05:48;;;;;;;;;14.67;14.67;;;;;8.27;100.00;99753.41;4935993;28;45834;-76
2023/03/07 07:08:13;;;;;;;;;23.33;18.67;;;;;8.29;100.00;99764.97;4943193;28;47432;-77
2023/03/07 07:10:39;;;;;;;;;15.00;15.00;;;;;8.30;100.00;99765.81;4941968;28;45674;-76
2023/03/07 07:13:04;;;;;;;;;22.33;15.67;;;;;8.19;100.00;99748.22;4948018;28;47921;-76
2023/03/07 07:15:31;;;;;;;;;17.00;16.00;;;;;8.28;100.00;99763.28;4951798;28;45516;-76
2023/03/07 07:17:56;;;;;;;;;23.00;17.33;;;;;8.28;100.00;99766.03;4951280;28;45550;-76
2023/03/07 07:20:23;;;;;;;;;14.67;12.33;;;;;8.34;100.00;99766.19;4952045;28;45920;-74
2023/03/07 07:22:48;;;;;;;;;16.67;15.00;;;;;8.13;100.00;99735.44;4950874;28;45889;-76
2023/03/07 07:25:14;;;;;;;;;18.67;17.67;;;;;8.33;100.00;99770.00;4953111;28;45779;-78
2023/03/07 07:27:39;;;;;;;;;19.00;17.33;;;;;8.20;100.00;99747.13;4952422;28;45812;-76
2023/03/07 07:30:06;;;;;;;;;23.00;18.00;;;;;8.26;100.00;99753.63;4943028;28;45986;-76
2023/03/07 07:32:32;;;;;;;;;22.00;16.00;;;;;8.38;100.00;99768.25;4952031;28;46124;-76
2023/03/07 07:34:57;;;;;;;;;29.67;17.67;;;;;8.37;100.00;99769.34;4946645;28;44865;-75
2023/03/07 07:37:23;;;;;;;;;17.33;16.67;;;;;8.39;100.00;99766.38;4942636;28;45959;-78
2023/03/07 07:39:49;;;;;;;;;16.00;14.00;;;;;8.36;100.00;99758.63;4950696;28;45914;-77
2023/03/07 07:42:15;;;;;;;;;23.33;17.67;;;;;8.31;100.00;99735.53;4956201;28;45976;-77
2023/03/07 07:44:40;;;;;;;;;19.00;17.00;;;;;8.46;100.00;99757.13;4951284;28;45681;-76
2023/03/07 07:47:06;;;;;;;;;23.33;17.33;;;;;8.48;100.00;99752.25;4952981;28;45896;-76
2023/03/07 07:49:31;;;;;;;;;15.00;14.00;;;;;8.66;100.00;99756.16;4942637;28;45905;-76
2023/03/07 07:51:57;;;;;;;;;21.00;20.50;;;;;8.70;100.00;99762.00;4935021;28;45666;-78
2023/03/07 07:54:22;;;;;;;;;18.33;17.33;;;;;8.73;100.00;99765.16;4948808;28;45860;-76
2023/03/07 07:56:48;;;;;;;;;20.00;16.67;;;;;8.78;100.00;99767.22;4947544;28;45406;-75
2023/03/07 07:59:13;;;;;;;;;19.67;17.00;;;;;8.75;100.00;99765.75;4947312;28;45669;-77
2023/03/07 08:01:38;;;;;;;;;17.33;14.33;;;;;8.74;100.00;99766.84;4951995;28;45452;-77
2023/03/07 08:04:04;;;;;;;;;14.67;14.67;;;;;8.67;100.00;99752.38;4938930;28;45448;-77
2023/03/07 08:06:30;;;;;;;;;19.33;17.00;;;;;8.72;100.00;99768.09;4952149;28;45656;-76
2023/03/07 08:08:55;;;;;;;;;18.67;17.67;;;;;8.76;100.00;99770.19;4947302;28;45614;-75
2023/03/07 08:11:22;;;;;;;;;20.67;17.00;;;;;8.84;100.00;99783.56;4953129;28;45886;-76
2023/03/07 08:13:48;;;;;;;;;18.67;17.67;;;;;8.88;100.00;99778.50;4941788;28;45736;-77
2023/03/07 08:16:16;;;;;;;;;11.33;9.00;;;;;8.84;100.00;99766.34;4953219;28;45975;-76
2023/03/07 08:18:47;;;;;;;;;16.67;12.33;;;;;8.89;100.00;99777.47;4951532;28;45810;-76
2023/03/07 08:21:13;;;;;;;;;17.00;13.00;;;;;8.87;100.00;99776.81;4949059;28;45830;-76
2023/03/07 08:23:39;;;;;;;;;14.67;11.67;;;;;8.89;100.00;99771.13;4945238;28;45866;-76
2023/03/07 08:26:07;;;;;;;;;15.67;14.00;;;;;8.79;100.00;99750.59;4966014;28;46730;-77
2023/03/07 08:28:33;;;;;;;;;17.00;15.67;;;;;8.81;100.00;99774.97;4943569;28;45813;-76
2023/03/07 08:31:06;;;;;;;;;21.33;16.00;;;;;8.89;100.00;99784.81;4946805;28;45540;-75
2023/03/07 08:33:31;;;;;;;;;21.33;14.33;;;;;8.93;100.00;99775.09;4935785;28;45582;-75
2023/03/07 08:36:00;;;;;;;;;16.33;14.00;;;;;8.99;100.00;99768.75;4939797;28;45437;-75
2023/03/07 08:38:26;;;;;;;;;14.33;13.67;;;;;9.06;100.00;99779.66;4952658;28;46040;-75
2023/03/07 08:40:51;;;;;;;;;15.00;13.00;;;;;9.16;100.00;99782.69;4966404;28;48141;-75
2023/03/07 08:43:16;;;;;;;;;19.00;15.33;;;;;9.14;100.00;99782.91;4944993;28;45446;-76
2023/03/07 08:45:42;;;;;;;;;13.67;12.67;;;;;9.10;100.00;99773.50;4947364;28;45444;-77
2023/03/07 08:48:09;;;;;;;;;15.00;14.33;;;;;9.22;100.00;99781.81;4945817;28;45954;-78
2023/03/07 08:50:35;;;;;;;;;14.33;12.67;;;;;9.32;100.00;99773.91;4947651;28;45440;-78
2023/03/07 08:53:00;;;;;;;;;23.67;19.67;;;;;9.47;100.00;99770.81;4960944;28;45548;-74
2023/03/07 08:55:26;;;;;;;;;16.67;16.00;;;;;9.47;100.00;99754.41;4967365;28;45523;-74
2023/03/07 08:57:51;;;;;;;;;23.33;18.67;;;;;9.66;100.00;99771.69;4965351;28;46188;-75
2023/03/07 09:00:17;;;;;;;;;17.67;13.00;;;;;9.76;100.00;99767.59;4949531;28;46985;-75
2023/03/07 09:02:42;;;;;;;;;16.00;14.67;;;;;9.85;100.00;99767.06;4949142;28;45711;-75
2023/03/07 09:05:08;;;;;;;;;16.33;10.67;;;;;9.96;100.00;99773.69;4939432;28;46098;-74
2023/03/07 09:07:34;;;;;;;;;16.67;14.00;;;;;10.02;100.00;99771.94;4947906;28;45583;-76
2023/03/07 09:09:59;;;;;;;;;24.67;20.67;;;;;10.05;100.00;99766.00;4944013;28;45964;-74
2023/03/07 09:12:25;;;;;;;;;21.00;16.00;;;;;10.11;100.00;99764.25;4953321;28;45484;-78
2023/03/07 09:14:53;;;;;;;;;28.00;23.00;;;;;10.02;100.00;99741.78;4948373;28;45733;-77
2023/03/07 09:17:19;;;;;;;;;42.50;35.00;;;;;10.19;100.00;99764.75;4950723;28;46211;-75
2023/03/07 09:19:44;;;;;;;;;17.00;15.67;;;;;10.30;100.00;99767.78;4945615;28;45528;-79
2023/03/07 09:22:09;;;;;;;;;18.00;14.67;;;;;10.44;100.00;99763.81;4951637;28;45824;-75
2023/03/07 09:24:35;;;;;;;;;15.33;14.33;;;;;10.58;100.00;99756.22;4949659;28;45982;-74
2023/03/07 09:27:00;;;;;;;;;18.33;14.00;;;;;10.68;100.00;99764.72;4948513;28;45866;-76
2023/03/07 09:29:34;;;;;;;;;16.67;15.33;;;;;10.89;100.00;99762.53;4949897;28;45755;-78
2023/03/07 09:32:02;;;;;;;;;14.00;12.67;;;;;11.01;100.00;99749.66;4947671;28;46059;-75
2023/03/07 09:34:27;;;;;;;;;12.00;12.00;;;;;10.89;100.00;99722.22;4949131;28;45592;-75
2023/03/07 09:36:53;;;;;;;;;18.67;14.00;;;;;11.06;100.00;99738.84;4952193;28;45793;-76
2023/03/07 09:39:18;;;;;;;;;14.33;14.00;;;;;11.28;100.00;99758.28;4953675;28;45507;-76
2023/03/07 09:42:01;;;;;;;;;13.00;12.00;;;;;11.37;100.00;99761.50;4951719;28;45404;-75
2023/03/07 09:44:56;;;;;;;;;17.33;14.33;;;;;11.38;100.00;99724.75;4953027;28;45825;-77
2023/03/07 09:47:53;;;;;;;;;16.67;13.00;;;;;11.67;100.00;99744.06;4948043;28;46305;-75
2023/03/07 09:50:33;;;;;;;;;14.33;10.67;;;;;11.82;100.00;99743.56;4949954;28;45409;-77
2023/03/07 09:53:02;;;;;;;;;17.00;12.00;;;;;11.84;100.00;99742.25;4951824;28;45885;-76
2023/03/07 09:55:30;;;;;;;;;16.00;13.67;;;;;11.97;100.00;99740.31;4954832;28;45635;-78
2023/03/07 09:58:07;;;;;;;;;12.00;12.00;;;;;12.20;100.00;99736.69;4951790;28;45993;-76
2023/03/07 10:00:37;;;;;;;;;15.00;15.00;;;;;12.30;100.00;99739.59;4947739;28;46907;-77
2023/03/07 10:03:27;;;;;;;;;19.00;16.33;;;;;12.58;100.00;99737.13;4950275;28;45284;-78
2023/03/07 10:05:58;;;;;;;;;13.00;13.00;;;;;12.83;100.00;99723.81;4947549;28;45509;-78
2023/03/07 10:08:29;;;;;;;;;14.67;12.00;;;;;12.94;100.00;99724.81;4951437;28;45438;-77
2023/03/07 10:11:12;;;;;;;;;13.00;12.00;;;;;13.14;98.34;99713.28;4955245;28;45986;-78
2023/03/07 10:13:47;;;;;;;;;15.00;13.67;;;;;13.29;97.26;99718.19;4955271;28;45669;-76
2023/03/07 10:16:33;;;;;;;;;14.33;13.33;;;;;13.42;96.67;99715.13;4951198;28;47544;-76
2023/03/07 10:19:24;;;;;;;;;14.33;13.33;;;;;13.40;94.56;99717.28;4950522;28;45708;-77
2023/03/07 10:22:19;;;;;;;;;12.67;12.00;;;;;13.13;95.06;99695.13;4948657;28;45672;-77
2023/03/07 10:25:07;;;;;;;;;17.33;12.67;;;;;13.25;95.13;99706.03;4943243;28;45554;-77
2023/03/07 10:27:33;;;;;;;;;18.00;17.00;;;;;13.11;95.02;99704.69;4950961;28;45508;-77
2023/03/07 10:30:07;;;;;;;;;18.67;15.67;;;;;12.96;95.12;99683.28;4947593;28;45814;-77
2023/03/07 10:32:38;;;;;;;;;13.00;12.33;;;;;12.98;95.27;99703.13;4948498;28;47495;-77
2023/03/07 10:35:10;;;;;;;;;16.67;15.00;;;;;12.94;94.21;99707.47;4950332;28;45871;-77
2023/03/07 10:37:42;;;;;;;;;18.33;12.33;;;;;12.92;95.30;99698.63;4949675;28;45859;-77
2023/03/07 10:40:17;;;;;;;;;18.33;14.33;;;;;13.00;95.86;99695.47;4948639;28;45767;-77
2023/03/07 10:42:42;;;;;;;;;13.33;12.67;;;;;13.07;95.50;99699.69;4948548;28;45844;-78
2023/03/07 10:45:12;;;;;;;;;18.00;14.00;;;;;13.03;95.63;99705.97;4942539;28;45784;-77
2023/03/07 10:47:41;;;;;;;;;18.33;13.67;;;;;13.04;94.97;99702.13;4939125;28;46509;-80
2023/03/07 10:50:06;;;;;;;;;19.00;16.00;;;;;13.06;95.82;99694.44;4947685;28;45596;-80
2023/03/07 10:52:39;;;;;;;;;16.00;12.67;;;;;13.07;94.30;99693.38;4949098;28;45496;-78
2023/03/07 10:55:36;;;;;;;;;18.00;11.67;;;;;13.11;92.70;99700.03;4950908;28;45450;-78
2023/03/07 10:58:20;;;;;;;;;11.67;11.67;;;;;13.20;94.03;99689.41;4949247;28;45575;-76
2023/03/07 11:01:00;;;;;;;;;12.33;11.33;;;;;13.37;93.40;99683.94;4937053;28;45958;-78
2023/03/07 11:03:50;;;;;;;;;15.67;13.33;;;;;13.54;92.37;99662.66;4949460;28;45893;-78
2023/03/07 11:06:26;;;;;;;;;15.67;13.67;;;;;14.18;95.30;99674.19;4950079;28;45835;-78
2023/03/07 11:08:52;;;;;;;;;15.00;11.67;;;;;14.51;91.00;99661.28;4956146;28;45617;-76
2023/03/07 11:11:33;;;;;;;;;16.67;14.33;;;;;14.67;88.70;99635.53;4948358;28;46923;-80
2023/03/07 11:14:12;;;;;;;;;12.33;12.33;;;;;15.10;89.55;99666.72;4951895;28;46854;-79
2023/03/07 11:16:51;;;;;;;;;13.00;12.33;;;;;15.16;87.34;99651.03;4948801;28;46038;-79
2023/03/07 11:19:29;;;;;;;;;12.67;12.00;;;;;15.25;86.95;99637.56;4945293;28;45758;-78
2023/03/07 11:21:56;;;;;;;;;16.00;14.67;;;;;15.61;83.41;99670.91;4947671;28;45929;-79
2023/03/07 11:24:35;;;;;;;;;12.00;8.67;;;;;15.66;82.89;99673.72;4959295;28;45931;-77
2023/03/07 11:27:01;;;;;;;;;14.00;10.67;;;;;15.73;82.21;99681.75;4946649;28;45790;-76
2023/03/07 11:29:27;;;;;;;;;15.33;12.67;;;;;15.77;81.62;99683.69;4944715;28;45864;-79
2023/03/07 11:32:10;;;;;;;;;13.67;12.33;;;;;15.82;81.54;99678.25;4945575;28;45784;-77
2023/03/07 11:34:42;;;;;;;;;23.33;18.67;;;;;16.01;81.77;99688.81;4948274;28;45530;-76